Time;durP1;ratioP1;P1;durP2;ratioP2;P2;SDS_P1;SDS_P2;PMS_P1;PMS_P2;Temp;Humidity;BMP_temperature;BMP_pressure;BME280_temperature;BME280_humidity;BME280_pressure;Samples;Min_cycle;Max_cycle;Signal;HPM_P1;HPM_P2
2022/10/14 00:01:41;;;;;;;3.33;2.40;;;;;;;;;;5084413;28;20024;-51
2022/10/14 00:04:07;;;;;;;2.92;2.10;;;;;;;;;;5083192;28;20051;-47
2022/10/14 00:06:34;;;;;;;3.47;2.50;;;;;;;;;;5084200;28;20561;-46
2022/10/14 00:09:01;;;;;;;2.70;2.30;;;;;;;;;;5084723;28;20039;-51
2022/10/14 00:11:29;;;;;;;2.88;2.50;;;;;;;;;;5084452;28;20024;-50
2022/10/14 00:13:57;;;;;;;5.03;3.03;;;;;;;;;;5085096;28;20024;-49
2022/10/14 00:16:24;;;;;;;4.13;2.92;;;;;;;;;;5084147;28;20043;-49
2022/10/14 00:18:51;;;;;;;3.95;3.17;;;;;;;;;;5084016;28;20028;-51
2022/10/14 00:21:18;;;;;;;3.97;3.15;;;;;;;;;;5084751;28;20031;-48
2022/10/14 00:23:45;;;;;;;3.30;2.70;;;;;;;;;;5084106;28;20036;-49
2022/10/14 00:26:19;;;;;;;3.67;3.03;;;;;;;;;;5071656;28;20028;-50
2022/10/14 00:28:45;;;;;;;3.50;3.00;;;;;;;;;;5064843;28;20101;-50
2022/10/14 00:31:11;;;;;;;4.35;3.20;;;;;;;;;;5063497;28;20070;-46
2022/10/14 00:33:37;;;;;;;5.80;2.95;;;;;;;;;;5063094;28;20028;-49
2022/10/14 00:36:04;;;;;;;3.75;2.88;;;;;;;;;;5063420;28;20020;-50
2022/10/14 00:38:30;;;;;;;3.08;2.78;;;;;;;;;;5063279;28;20028;-48
2022/10/14 00:40:56;;;;;;;3.90;3.15;;;;;;;;;;5063552;28;20705;-51
2022/10/14 00:43:23;;;;;;;3.90;2.83;;;;;;;;;;5070515;28;20093;-49
2022/10/14 00:45:49;;;;;;;3.60;2.58;;;;;;;;;;5086681;28;20053;-50
2022/10/14 00:48:17;;;;;;;3.40;3.08;;;;;;;;;;5087639;28;20031;-50
2022/10/14 00:50:45;;;;;;;3.80;3.10;;;;;;;;;;5087742;28;20028;-50
2022/10/14 00:53:12;;;;;;;3.92;3.15;;;;;;;;;;5087142;28;20085;-48
2022/10/14 00:55:40;;;;;;;3.90;2.85;;;;;;;;;;5086669;28;20024;-51
2022/10/14 00:58:06;;;;;;;3.10;2.60;;;;;;;;;;5086405;28;20042;-50
2022/10/14 01:00:33;;;;;;;3.92;2.95;;;;;;;;;;5086699;28;20024;-49
2022/10/14 01:03:00;;;;;;;5.55;2.65;;;;;;;;;;5086731;28;20032;-47
2022/10/14 01:05:31;;;;;;;3.63;3.15;;;;;;;;;;5086644;28;20032;-49
2022/10/14 01:08:03;;;;;;;4.40;3.00;;;;;;;;;;5086800;28;20060;-51
2022/10/14 01:10:43;;;;;;;4.47;3.25;;;;;;;;;;5086579;28;20023;-49
2022/10/14 01:13:15;;;;;;;3.33;2.90;;;;;;;;;;5085727;28;20032;-49
2022/10/14 01:15:41;;;;;;;3.40;3.10;;;;;;;;;;5086295;28;20028;-48
2022/10/14 01:18:14;;;;;;;3.30;2.80;;;;;;;;;;5086431;28;21117;-50
2022/10/14 01:20:58;;;;;;;3.67;3.03;;;;;;;;;;5086563;28;20062;-47
2022/10/14 01:23:24;;;;;;;;;;;;;;;;;;5086970;28;20039;-51
2022/10/14 01:26:08;;;;;;;3.40;2.90;;;;;;;;;;5086484;28;19920;-52
2022/10/14 01:28:40;;;;;;;4.72;2.88;;;;;;;;;;5073791;28;20111;-49
2022/10/14 01:31:08;;;;;;;3.85;3.45;;;;;;;;;;5066377;28;20028;-47
2022/10/14 01:33:39;;;;;;;3.72;2.72;;;;;;;;;;5065763;28;20055;-49
2022/10/14 01:36:14;;;;;;;2.45;2.25;;;;;;;;;;5080199;28;20040;-46
2022/10/14 01:38:46;;;;;;;3.47;2.92;;;;;;;;;;5084778;28;20069;-50
2022/10/14 01:41:19;;;;;;;4.35;3.15;;;;;;;;;;5085196;28;20035;-50
2022/10/14 01:43:46;;;;;;;3.60;3.05;;;;;;;;;;5086797;28;20491;-48
2022/10/14 01:46:13;;;;;;;3.15;2.85;;;;;;;;;;5086188;28;20020;-48
2022/10/14 01:48:43;;;;;;;3.75;3.25;;;;;;;;;;5085761;28;20027;-49
2022/10/14 01:51:12;;;;;;;4.03;3.03;;;;;;;;;;5085941;28;20031;-52
2022/10/14 01:53:41;;;;;;;3.83;3.08;;;;;;;;;;5084980;28;20094;-50
2022/10/14 01:56:09;;;;;;;2.92;2.63;;;;;;;;;;5085647;28;20028;-49
2022/10/14 01:58:36;;;;;;;3.00;2.67;;;;;;;;;;5085826;28;20063;-47
2022/10/14 02:01:03;;;;;;;2.85;2.53;;;;;;;;;;5081885;28;20028;-49
2022/10/14 02:03:43;;;;;;;4.38;2.80;;;;;;;;;;5065415;28;20028;-52
2022/10/14 02:06:30;;;;;;;3.17;2.42;;;;;;;;;;5065249;28;20499;-47
2022/10/14 02:09:08;;;;;;;3.50;2.35;;;;;;;;;;5065438;28;20103;-49
2022/10/14 02:11:40;;;;;;;2.72;2.40;;;;;;;;;;5065113;28;20055;-50
2022/10/14 02:14:41;;;;;;;3.63;2.40;;;;;;;;;;5065497;28;20052;-50
2022/10/14 02:17:22;;;;;;;3.10;2.25;;;;;;;;;;5016384;28;20619;-50
2022/10/14 02:19:57;;;;;;;2.92;2.38;;;;;;;;;;5060671;28;20127;-50
2022/10/14 02:22:44;;;;;;;4.47;2.40;;;;;;;;;;5064984;28;20033;-50
2022/10/14 02:25:14;;;;;;;4.00;2.20;;;;;;;;;;5066053;28;20020;-52
2022/10/14 02:27:42;;;;;;;3.00;2.38;;;;;;;;;;5066035;28;20033;-52
2022/10/14 02:30:08;;;;;;;3.08;2.03;;;;;;;;;;5065147;28;20025;-50
2022/10/14 02:32:36;;;;;;;2.70;2.10;;;;;;;;;;5064479;28;20063;-50
2022/10/14 02:35:02;;;;;;;2.33;1.98;;;;;;;;;;5064888;28;20028;-47
2022/10/14 02:37:29;;;;;;;3.00;2.15;;;;;;;;;;5065448;28;20259;-49
2022/10/14 02:39:58;;;;;;;3.42;2.30;;;;;;;;;;5065108;28;20241;-48
2022/10/14 02:42:24;;;;;;;2.40;2.20;;;;;;;;;;5070911;28;20043;-51
2022/10/14 02:44:58;;;;;;;2.47;2.00;;;;;;;;;;5085183;28;20336;-49
2022/10/14 02:47:24;;;;;;;2.60;2.08;;;;;;;;;;5085003;28;20036;-47
2022/10/14 02:49:51;;;;;;;2.22;2.00;;;;;;;;;;5084610;28;20093;-48
2022/10/14 02:52:17;;;;;;;3.28;2.47;;;;;;;;;;5084799;28;20032;-52
2022/10/14 02:54:43;;;;;;;2.40;2.20;;;;;;;;;;5084460;28;20016;-48
2022/10/14 02:57:10;;;;;;;4.53;3.15;;;;;;;;;;5064805;28;20415;-47
2022/10/14 02:59:38;;;;;;;2.38;2.15;;;;;;;;;;5064228;28;20039;-51
2022/10/14 03:02:04;;;;;;;3.38;2.60;;;;;;;;;;5064282;28;20173;-47
2022/10/14 03:04:31;;;;;;;3.42;1.75;;;;;;;;;;5063517;28;20107;-49
2022/10/14 03:06:57;;;;;;;3.30;1.75;;;;;;;;;;5065345;28;20085;-50
2022/10/14 03:09:24;;;;;;;2.00;1.63;;;;;;;;;;5064201;28;20092;-48
2022/10/14 03:11:50;;;;;;;1.75;1.65;;;;;;;;;;5082570;28;20032;-49
2022/10/14 03:14:16;;;;;;;2.58;1.67;;;;;;;;;;5084469;28;20031;-52
2022/10/14 03:16:42;;;;;;;2.28;1.70;;;;;;;;;;5083975;28;20032;-48
2022/10/14 03:19:08;;;;;;;2.05;1.75;;;;;;;;;;5084056;28;20024;-50
2022/10/14 03:21:34;;;;;;;1.60;1.50;;;;;;;;;;5084219;28;20044;-48
2022/10/14 03:24:00;;;;;;;2.33;1.70;;;;;;;;;;5085117;28;20052;-47
2022/10/14 03:26:26;;;;;;;2.15;1.40;;;;;;;;;;5084530;28;20503;-48
2022/10/14 03:28:52;;;;;;;1.20;1.10;;;;;;;;;;5065081;28;20309;-47
2022/10/14 03:31:18;;;;;;;1.80;1.33;;;;;;;;;;5063855;28;20058;-47
2022/10/14 03:33:44;;;;;;;1.40;1.17;;;;;;;;;;5063768;28;20069;-50
2022/10/14 03:36:11;;;;;;;1.05;1.00;;;;;;;;;;5063796;28;20426;-47
2022/10/14 03:38:38;;;;;;;1.17;1.10;;;;;;;;;;5063733;28;20116;-49
2022/10/14 03:41:04;;;;;;;2.80;1.40;;;;;;;;;;5063984;28;20535;-48
2022/10/14 03:43:30;;;;;;;1.67;1.33;;;;;;;;;;5081473;28;20032;-47
2022/10/14 03:45:56;;;;;;;1.23;1.13;;;;;;;;;;5084244;28;20071;-49
2022/10/14 03:48:22;;;;;;;1.42;1.33;;;;;;;;;;5084129;28;20069;-50
2022/10/14 03:50:48;;;;;;;1.70;1.27;;;;;;;;;;5083965;28;20028;-48
2022/10/14 03:53:14;;;;;;;1.83;1.50;;;;;;;;;;5083959;28;20039;-49
2022/10/14 03:55:40;;;;;;;1.85;1.40;;;;;;;;;;5082962;28;20039;-46
2022/10/14 03:58:06;;;;;;;2.35;1.45;;;;;;;;;;5084047;28;20032;-48
2022/10/14 04:00:34;;;;;;;2.45;2.05;;;;;;;;;;5082959;28;20035;-50
2022/10/14 04:03:00;;;;;;;2.38;2.05;;;;;;;;;;5084121;28;20024;-46
2022/10/14 04:05:31;;;;;;;2.67;2.40;;;;;;;;;;5084309;28;20028;-47
2022/10/14 04:07:58;;;;;;;2.28;1.98;;;;;;;;;;5084455;28;20125;-50
2022/10/14 04:10:25;;;;;;;2.60;2.10;;;;;;;;;;5083858;28;20562;-50
2022/10/14 04:12:52;;;;;;;3.47;2.08;;;;;;;;;;5083742;28;20020;-48
2022/10/14 04:15:18;;;;;;;3.15;2.30;;;;;;;;;;5082556;28;20032;-49
2022/10/14 04:17:44;;;;;;;3.50;2.78;;;;;;;;;;5086599;28;20112;-49
2022/10/14 04:20:10;;;;;;;2.47;2.28;;;;;;;;;;5087698;28;20027;-48
2022/10/14 04:22:36;;;;;;;2.20;2.00;;;;;;;;;;5086819;28;20024;-47
2022/10/14 04:25:02;;;;;;;3.08;2.45;;;;;;;;;;5088993;28;20494;-49
2022/10/14 04:27:28;;;;;;;2.20;2.00;;;;;;;;;;5086448;28;20028;-52
2022/10/14 04:29:54;;;;;;;2.65;2.22;;;;;;;;;;5087918;28;20202;-47
2022/10/14 04:32:20;;;;;;;3.60;2.63;;;;;;;;;;5087704;28;20114;-51
2022/10/14 04:34:46;;;;;;;2.97;2.35;;;;;;;;;;5087057;28;20324;-48
2022/10/14 04:37:12;;;;;;;2.67;2.38;;;;;;;;;;5087348;28;20278;-49
2022/10/14 04:39:38;;;;;;;2.67;2.28;;;;;;;;;;5087330;28;20030;-47
2022/10/14 04:42:05;;;;;;;2.30;2.03;;;;;;;;;;5079588;28;20028;-52
2022/10/14 04:44:31;;;;;;;2.10;1.90;;;;;;;;;;5066864;28;20047;-49
2022/10/14 04:46:57;;;;;;;1.25;1.15;;;;;;;;;;5069035;28;20025;-48
2022/10/14 04:49:24;;;;;;;1.52;1.42;;;;;;;;;;5087200;28;20032;-48
2022/10/14 04:51:50;;;;;;;1.35;1.25;;;;;;;;;;5086895;28;20388;-48
2022/10/14 04:54:16;;;;;;;1.65;1.40;;;;;;;;;;5087494;28;20024;-47
2022/10/14 04:56:42;;;;;;;1.52;1.33;;;;;;;;;;5087057;28;20078;-47
2022/10/14 04:59:08;;;;;;;1.20;1.10;;;;;;;;;;5087028;28;20036;-50
2022/10/14 05:01:35;;;;;;;1.73;0.90;;;;;;;;;;5085977;28;20071;-50
2022/10/14 05:04:01;;;;;;;1.20;1.10;;;;;;;;;;5066866;28;20032;-47
2022/10/14 05:06:26;;;;;;;0.88;0.88;;;;;;;;;;5066832;28;20085;-46
2022/10/14 05:08:54;;;;;;;2.05;0.98;;;;;;;;;;5066710;28;20404;-47
2022/10/14 05:11:20;;;;;;;1.10;0.93;;;;;;;;;;5066579;28;20388;-47
2022/10/14 05:13:46;;;;;;;1.17;1.00;;;;;;;;;;5068063;28;20399;-48
2022/10/14 05:16:12;;;;;;;1.40;1.30;;;;;;;;;;5082017;28;20045;-47
2022/10/14 05:18:38;;;;;;;1.13;1.00;;;;;;;;;;5067359;28;20036;-48
2022/10/14 05:21:04;;;;;;;1.60;1.13;;;;;;;;;;5075881;28;20016;-51
2022/10/14 05:23:30;;;;;;;1.30;1.20;;;;;;;;;;5088233;28;20028;-50
2022/10/14 05:25:56;;;;;;;1.60;1.20;;;;;;;;;;5088829;28;20412;-50
2022/10/14 05:28:22;;;;;;;1.17;1.08;;;;;;;;;;5078649;28;20028;-48
2022/10/14 05:30:48;;;;;;;1.48;1.38;;;;;;;;;;5067570;28;20039;-49
2022/10/14 05:33:15;;;;;;;2.15;1.45;;;;;;;;;;5076382;28;20080;-47
2022/10/14 05:35:42;;;;;;;1.20;1.05;;;;;;;;;;5087982;28;20104;-49
2022/10/14 05:38:09;;;;;;;1.65;1.27;;;;;;;;;;5088538;28;20036;-51
2022/10/14 05:40:35;;;;;;;1.92;1.40;;;;;;;;;;5088051;28;20041;-50
2022/10/14 05:43:01;;;;;;;1.50;1.40;;;;;;;;;;5086878;28;20036;-51
2022/10/14 05:45:27;;;;;;;2.08;1.02;;;;;;;;;;5088485;28;20426;-49
2022/10/14 05:47:53;;;;;;;1.20;1.10;;;;;;;;;;5079313;28;20575;-50
2022/10/14 05:50:19;;;;;;;1.10;1.00;;;;;;;;;;5068421;28;20225;-48
2022/10/14 05:52:45;;;;;;;1.42;1.23;;;;;;;;;;5067642;28;20500;-52
2022/10/14 05:55:11;;;;;;;1.15;0.93;;;;;;;;;;5071000;28;20391;-51
2022/10/14 05:57:37;;;;;;;0.88;0.88;;;;;;;;;;5075191;28;20032;-49
2022/10/14 06:00:04;;;;;;;0.95;0.90;;;;;;;;;;5067161;28;20025;-49
2022/10/14 06:02:31;;;;;;;1.38;0.90;;;;;;;;;;5070863;28;20036;-49
2022/10/14 06:04:57;;;;;;;0.60;0.60;;;;;;;;;;5067053;28;20041;-50
2022/10/14 06:07:23;;;;;;;1.25;0.90;;;;;;;;;;5066453;28;20035;-51
2022/10/14 06:09:49;;;;;;;1.95;0.90;;;;;;;;;;5073983;28;20078;-50
2022/10/14 06:12:16;;;;;;;1.35;0.80;;;;;;;;;;5076760;28;20562;-50
2022/10/14 06:14:42;;;;;;;1.05;0.80;;;;;;;;;;5087091;28;20049;-51
2022/10/14 06:17:09;;;;;;;0.90;0.80;;;;;;;;;;5087248;28;20024;-51
2022/10/14 06:19:35;;;;;;;0.70;0.70;;;;;;;;;;5086456;28;20024;-51
2022/10/14 06:22:01;;;;;;;1.38;0.82;;;;;;;;;;5085185;28;20028;-49
2022/10/14 06:24:27;;;;;;;1.10;1.00;;;;;;;;;;5085697;28;20031;-47
2022/10/14 06:26:53;;;;;;;1.73;1.30;;;;;;;;;;5074203;28;20032;-47
2022/10/14 06:29:22;;;;;;;1.92;1.00;;;;;;;;;;5066844;28;20036;-50
2022/10/14 06:31:48;;;;;;;1.42;1.08;;;;;;;;;;5066673;28;20028;-49
2022/10/14 06:34:14;;;;;;;1.02;0.93;;;;;;;;;;5081288;28;20123;-52
2022/10/14 06:36:40;;;;;;;1.33;1.10;;;;;;;;;;5078723;28;20550;-49
2022/10/14 06:39:06;;;;;;;1.13;1.05;;;;;;;;;;5084178;28;20567;-50
2022/10/14 06:41:33;;;;;;;1.67;1.17;;;;;;;;;;5082850;28;20039;-49
2022/10/14 06:43:59;;;;;;;2.03;1.17;;;;;;;;;;5087365;28;20042;-48
2022/10/14 06:46:25;;;;;;;1.60;1.08;;;;;;;;;;5085312;28;20065;-50
2022/10/14 06:48:51;;;;;;;1.80;1.38;;;;;;;;;;5076870;28;20032;-48
2022/10/14 06:51:17;;;;;;;1.60;1.30;;;;;;;;;;5082230;28;20555;-50
2022/10/14 06:53:43;;;;;;;1.92;1.42;;;;;;;;;;5075197;28;20449;-49
2022/10/14 06:56:10;;;;;;;2.40;1.40;;;;;;;;;;5075606;28;20032;-49
2022/10/14 06:58:36;;;;;;;1.83;1.67;;;;;;;;;;5085831;28;20510;-48
2022/10/14 07:01:03;;;;;;;2.47;1.70;;;;;;;;;;5086521;28;20453;-48
2022/10/14 07:03:30;;;;;;;2.85;2.03;;;;;;;;;;5086264;28;20032;-47
2022/10/14 07:05:56;;;;;;;3.28;1.50;;;;;;;;;;5087807;28;20035;-51
2022/10/14 07:08:22;;;;;;;1.98;1.45;;;;;;;;;;5086586;28;20062;-51
2022/10/14 07:10:49;;;;;;;1.80;1.52;;;;;;;;;;5083158;28;20032;-50
2022/10/14 07:13:15;;;;;;;1.65;1.20;;;;;;;;;;5067112;28;20028;-49
2022/10/14 07:15:41;;;;;;;1.70;1.50;;;;;;;;;;5075715;28;20544;-48
2022/10/14 07:18:07;;;;;;;1.35;1.25;;;;;;;;;;5083376;28;20035;-49
2022/10/14 07:20:34;;;;;;;2.22;1.55;;;;;;;;;;5076027;28;20768;-46
2022/10/14 07:23:00;;;;;;;1.30;1.20;;;;;;;;;;5086267;28;20513;-47
2022/10/14 07:25:26;;;;;;;2.50;1.52;;;;;;;;;;5084858;28;20105;-49
2022/10/14 07:27:52;;;;;;;1.50;1.40;;;;;;;;;;5084242;28;20044;-48
2022/10/14 07:30:20;;;;;;;1.42;1.23;;;;;;;;;;5083596;28;20463;-48
2022/10/14 07:32:46;;;;;;;2.10;1.38;;;;;;;;;;5065842;28;20029;-50
2022/10/14 07:35:12;;;;;;;1.52;1.40;;;;;;;;;;5065884;28;20025;-46
2022/10/14 07:37:38;;;;;;;2.00;1.55;;;;;;;;;;5070267;28;20039;-49
2022/10/14 07:40:04;;;;;;;2.33;1.40;;;;;;;;;;5086312;28;20032;-50
2022/10/14 07:42:30;;;;;;;2.38;1.50;;;;;;;;;;5072505;28;20055;-51
2022/10/14 07:44:57;;;;;;;1.70;1.40;;;;;;;;;;5066706;28;20067;-50
2022/10/14 07:47:24;;;;;;;2.75;2.05;;;;;;;;;;5065955;28;20436;-51
2022/10/14 07:49:51;;;;;;;1.65;1.50;;;;;;;;;;5065727;28;20032;-48
2022/10/14 07:52:18;;;;;;;2.33;1.48;;;;;;;;;;5089762;28;20072;-49
2022/10/14 07:54:45;;;;;;;1.55;1.42;;;;;;;;;;5092377;28;20611;-46
2022/10/14 07:57:12;;;;;;;1.27;1.17;;;;;;;;;;5089566;28;20028;-47
2022/10/14 07:59:38;;;;;;;1.35;1.25;;;;;;;;;;5091633;28;20099;-48
2022/10/14 08:02:04;;;;;;;1.38;1.27;;;;;;;;;;5080985;28;20597;-50
2022/10/14 08:04:31;;;;;;;1.92;1.60;;;;;;;;;;5072974;28;20130;-48
2022/10/14 08:06:57;;;;;;;1.30;1.20;;;;;;;;;;5082568;28;20552;-47
2022/10/14 08:09:23;;;;;;;1.10;1.00;;;;;;;;;;5074968;28;20208;-52
2022/10/14 08:11:49;;;;;;;1.75;1.50;;;;;;;;;;5072050;28;20033;-47
2022/10/14 08:14:16;;;;;;;1.60;1.30;;;;;;;;;;5073256;28;20374;-51
2022/10/14 08:16:43;;;;;;;1.83;1.40;;;;;;;;;;5073049;28;20070;-50
2022/10/14 08:19:10;;;;;;;1.40;1.30;;;;;;;;;;5081027;28;20118;-46
2022/10/14 08:21:36;;;;;;;1.67;1.58;;;;;;;;;;5075959;28;20064;-49
2022/10/14 08:24:02;;;;;;;1.50;1.40;;;;;;;;;;5078886;28;20060;-47
2022/10/14 08:26:32;;;;;;;2.97;1.40;;;;;;;;;;5086583;28;20032;-51
2022/10/14 08:29:00;;;;;;;1.88;1.40;;;;;;;;;;5091870;28;20043;-49
2022/10/14 08:31:27;;;;;;;1.15;1.05;;;;;;;;;;5090022;28;20107;-50
2022/10/14 08:33:54;;;;;;;1.48;1.38;;;;;;;;;;5092348;28;20127;-48
2022/10/14 08:36:21;;;;;;;2.08;1.30;;;;;;;;;;5090066;28;20499;-49
2022/10/14 08:38:48;;;;;;;1.58;1.48;;;;;;;;;;5091911;28;20028;-51
2022/10/14 08:41:24;;;;;;;1.48;1.38;;;;;;;;;;5091014;28;20043;-51
2022/10/14 08:43:50;;;;;;;1.60;1.20;;;;;;;;;;5077591;28;20038;-47
2022/10/14 08:46:16;;;;;;;1.15;1.05;;;;;;;;;;5091689;28;20028;-50
2022/10/14 08:48:43;;;;;;;1.30;1.20;;;;;;;;;;5092013;28;20031;-49
2022/10/14 08:51:12;;;;;;;1.25;1.15;;;;;;;;;;5091267;28;20093;-51
2022/10/14 08:53:44;;;;;;;1.70;1.30;;;;;;;;;;5091930;28;20020;-47
2022/10/14 08:56:11;;;;;;;1.20;1.10;;;;;;;;;;5091066;28;20402;-47
2022/10/14 08:58:38;;;;;;;1.23;1.13;;;;;;;;;;5091787;28;20027;-47
2022/10/14 09:01:24;;;;;;;1.00;0.93;;;;;;;;;;5089424;28;20047;-48
2022/10/14 09:03:53;;;;;;;1.40;1.20;;;;;;;;;;5085813;28;20024;-51
2022/10/14 09:06:23;;;;;;;1.23;0.95;;;;;;;;;;5086925;28;20060;-47
2022/10/14 09:08:52;;;;;;;1.00;1.00;;;;;;;;;;5088078;28;20107;-46
2022/10/14 09:11:19;;;;;;;1.33;0.90;;;;;;;;;;5085548;28;20028;-47
2022/10/14 09:13:47;;;;;;;1.08;0.98;;;;;;;;;;5079492;28;20197;-49
2022/10/14 09:16:18;;;;;;;0.90;0.90;;;;;;;;;;5087126;28;20036;-49
2022/10/14 09:18:55;;;;;;;1.33;1.10;;;;;;;;;;5087887;28;20035;-48
2022/10/14 09:21:30;;;;;;;0.90;0.90;;;;;;;;;;5088424;28;20040;-46
2022/10/14 09:24:08;;;;;;;1.10;1.00;;;;;;;;;;5087309;28;20110;-48
2022/10/14 09:26:39;;;;;;;1.40;1.10;;;;;;;;;;5086873;28;20404;-47
2022/10/14 09:29:05;;;;;;;0.80;0.80;;;;;;;;;;5087548;28;20024;-52
2022/10/14 09:31:31;;;;;;;2.35;1.15;;;;;;;;;;5080596;28;20021;-49
2022/10/14 09:33:57;;;;;;;1.48;1.20;;;;;;;;;;5081449;28;20470;-48
2022/10/14 09:36:23;;;;;;;1.23;1.00;;;;;;;;;;5088134;28;20543;-52
2022/10/14 09:38:51;;;;;;;1.27;1.05;;;;;;;;;;5086171;28;20043;-48
2022/10/14 09:41:19;;;;;;;1.10;1.00;;;;;;;;;;5088102;28;20534;-50
2022/10/14 09:44:03;;;;;;;1.42;1.00;;;;;;;;;;5087266;28;20040;-52
2022/10/14 09:46:30;;;;;;;;;;;;;;;;;;5088156;28;20465;-50
2022/10/14 09:48:56;;;;;;;1.20;1.10;;;;;;;;;;5087070;28;19959;-49
2022/10/14 09:51:25;;;;;;;1.05;0.85;;;;;;;;;;5087723;28;20078;-50
2022/10/14 09:53:52;;;;;;;1.23;1.13;;;;;;;;;;5086549;28;20024;-49
2022/10/14 09:56:27;;;;;;;0.88;0.73;;;;;;;;;;5086800;28;20028;-47
2022/10/14 09:58:56;;;;;;;1.00;1.00;;;;;;;;;;5085826;28;20038;-50
2022/10/14 10:01:26;;;;;;;0.70;0.70;;;;;;;;;;5078798;28;20418;-50
2022/10/14 10:03:53;;;;;;;0.90;0.90;;;;;;;;;;5067510;28;20028;-48
2022/10/14 10:06:22;;;;;;;1.05;0.95;;;;;;;;;;5076861;28;20035;-48
2022/10/14 10:09:06;;;;;;;0.73;0.73;;;;;;;;;;5081923;28;20032;-48
2022/10/14 10:11:36;;;;;;;1.27;0.90;;;;;;;;;;5086578;28;20106;-50
2022/10/14 10:14:20;;;;;;;0.75;0.75;;;;;;;;;;5086219;28;20027;-48
2022/10/14 10:16:47;;;;;;;;;;;;;;;;;;5084326;28;20772;-49
2022/10/14 10:19:22;;;;;;;1.48;0.70;;;;;;;;;;5083121;28;19992;-50
2022/10/14 10:21:48;;;;;;;0.95;0.88;;;;;;;;;;5084874;28;20574;-47
2022/10/14 10:24:20;;;;;;;1.10;1.00;;;;;;;;;;5087327;28;20074;-51
2022/10/14 10:26:46;;;;;;;1.17;1.00;;;;;;;;;;5086531;28;20032;-51
2022/10/14 10:29:34;;;;;;;0.80;0.80;;;;;;;;;;5085389;28;20024;-48
2022/10/14 10:32:18;;;;;;;0.98;0.88;;;;;;;;;;5087543;28;20495;-50
2022/10/14 10:34:45;;;;;;;0.70;0.70;;;;;;;;;;5084417;28;20033;-50
2022/10/14 10:37:14;;;;;;;1.13;0.90;;;;;;;;;;5084261;28;20031;-47
2022/10/14 10:39:49;;;;;;;0.75;0.70;;;;;;;;;;5085790;28;20096;-50
2022/10/14 10:42:24;;;;;;;1.08;0.80;;;;;;;;;;5081803;28;20111;-50
2022/10/14 10:45:09;;;;;;;0.70;0.70;;;;;;;;;;5083786;28;20032;-52
2022/10/14 10:47:35;;;;;;;0.63;0.63;;;;;;;;;;5086886;28;20028;-51
2022/10/14 10:50:03;;;;;;;0.88;0.88;;;;;;;;;;5087318;28;20099;-46
2022/10/14 10:52:44;;;;;;;1.80;0.85;;;;;;;;;;5083799;28;20020;-48
2022/10/14 10:55:26;;;;;;;1.02;0.93;;;;;;;;;;5069144;28;20094;-50
2022/10/14 10:57:55;;;;;;;0.85;0.85;;;;;;;;;;5083088;28;20032;-48
2022/10/14 11:00:22;;;;;;;1.23;0.95;;;;;;;;;;5081082;28;20467;-48
2022/10/14 11:03:07;;;;;;;0.77;0.77;;;;;;;;;;5087472;28;20414;-48
2022/10/14 11:05:34;;;;;;;1.05;0.80;;;;;;;;;;5075592;28;20043;-48
2022/10/14 11:13:51;;;;;;;0.85;0.77;;;;;;;;;;5076688;28;20024;-50
2022/10/14 11:16:32;;;;;;;0.82;0.80;;;;;;;;;;5087588;28;20032;-50
2022/10/14 11:19:07;;;;;;;1.25;1.00;;;;;;;;;;5067012;28;20048;-49
2022/10/14 11:21:47;;;;;;;0.90;0.77;;;;;;;;;;5065852;28;20043;-49
2022/10/14 11:24:35;;;;;;;0.80;0.70;;;;;;;;;;5066393;28;20031;-48
2022/10/14 11:27:20;;;;;;;0.90;0.82;;;;;;;;;;5065521;28;20111;-47
2022/10/14 11:29:46;;;;;;;0.90;0.90;;;;;;;;;;5078599;28;20034;-51
2022/10/14 11:32:14;;;;;;;1.33;0.70;;;;;;;;;;5078370;28;20031;-51
2022/10/14 11:34:59;;;;;;;0.80;0.80;;;;;;;;;;5071421;28;20029;-50
2022/10/14 11:37:28;;;;;;;0.60;0.60;;;;;;;;;;5075634;28;20047;-49
2022/10/14 11:39:57;;;;;;;0.93;0.70;;;;;;;;;;5076478;28;20028;-49
2022/10/14 11:42:23;;;;;;;0.75;0.70;;;;;;;;;;5067254;28;20032;-49
2022/10/14 11:44:57;;;;;;;0.63;0.63;;;;;;;;;;5067161;28;20515;-52
2022/10/14 11:47:24;;;;;;;;;;;;;;;;;;5076879;28;20505;-49
2022/10/14 11:50:08;;;;;;;1.00;0.93;;;;;;;;;;5072863;28;19908;-48
2022/10/14 11:52:45;;;;;;;0.60;0.60;;;;;;;;;;5066812;28;20036;-47
2022/10/14 11:55:19;;;;;;;0.85;0.80;;;;;;;;;;5066785;28;20519;-48
2022/10/14 11:57:48;;;;;;;0.85;0.50;;;;;;;;;;5076904;28;20032;-50
2022/10/14 12:00:14;;;;;;;0.40;0.40;;;;;;;;;;5087172;28;20066;-48
2022/10/14 12:02:59;;;;;;;0.45;0.45;;;;;;;;;;5067236;28;20034;-49
2022/10/14 12:05:25;;;;;;;;;;;;;;;;;;5080081;28;20036;-51
2022/10/14 12:07:54;;;;;;;0.50;0.50;;;;;;;;;;5072771;28;19924;-51
2022/10/14 12:10:25;;;;;;;0.40;0.40;;;;;;;;;;5071705;28;20035;-48
2022/10/14 12:12:54;;;;;;;0.63;0.50;;;;;;;;;;5083388;28;20028;-47
2022/10/14 12:15:21;;;;;;;0.50;0.50;;;;;;;;;;5084123;28;20120;-49
2022/10/14 12:17:52;;;;;;;0.40;0.40;;;;;;;;;;5080731;28;20110;-50
2022/10/14 12:20:43;;;;;;;0.52;0.50;;;;;;;;;;5081661;28;21399;-50
2022/10/14 12:23:12;;;;;;;0.40;0.40;;;;;;;;;;5051843;28;20097;-48
2022/10/14 12:25:43;;;;;;;0.60;0.50;;;;;;;;;;5070369;28;20028;-50
2022/10/14 12:28:19;;;;;;;0.30;0.30;;;;;;;;;;5084137;28;20035;-51
2022/10/14 12:30:46;;;;;;;0.47;0.35;;;;;;;;;;5084359;28;20016;-51
2022/10/14 12:33:17;;;;;;;0.50;0.40;;;;;;;;;;5084494;28;20437;-48
2022/10/14 12:35:45;;;;;;;0.32;0.32;;;;;;;;;;5075136;28;20182;-47
2022/10/14 12:38:12;;;;;;;0.50;0.50;;;;;;;;;;5087930;28;20114;-49
2022/10/14 12:40:38;;;;;;;0.50;0.50;;;;;;;;;;5080764;28;20089;-47
2022/10/14 12:43:12;;;;;;;0.60;0.60;;;;;;;;;;5086306;28;20067;-50
2022/10/14 12:45:46;;;;;;;0.40;0.40;;;;;;;;;;5076100;28;20154;-48
2022/10/14 12:48:38;;;;;;;0.50;0.50;;;;;;;;;;5081896;28;20020;-50
2022/10/14 12:51:10;;;;;;;0.60;0.60;;;;;;;;;;5075044;28;20399;-50
2022/10/14 12:53:38;;;;;;;0.30;0.30;;;;;;;;;;5069140;28;20494;-50
2022/10/14 12:56:06;;;;;;;0.68;0.68;;;;;;;;;;5068666;28;20024;-48
2022/10/14 12:58:34;;;;;;;0.85;0.63;;;;;;;;;;5067939;28;20065;-48
2022/10/14 13:01:28;;;;;;;0.50;0.50;;;;;;;;;;5067787;28;20028;-48
2022/10/14 13:03:57;;;;;;;0.40;0.40;;;;;;;;;;5065455;28;20051;-49
2022/10/14 13:06:28;;;;;;;0.40;0.40;;;;;;;;;;5067571;28;20160;-49
2022/10/14 13:09:15;;;;;;;0.43;0.43;;;;;;;;;;5067405;28;20035;-49
2022/10/14 13:11:41;;;;;;;1.48;0.40;;;;;;;;;;5067269;28;20099;-47
2022/10/14 13:14:19;;;;;;;0.85;0.50;;;;;;;;;;5067380;28;20107;-48
2022/10/14 13:16:45;;;;;;;0.45;0.30;;;;;;;;;;5067009;28;20032;-50
2022/10/14 13:19:31;;;;;;;1.05;0.40;;;;;;;;;;5067261;28;20035;-50
2022/10/14 13:21:57;;;;;;;0.40;0.40;;;;;;;;;;5067267;28;20082;-51
2022/10/14 13:24:38;;;;;;;0.30;0.30;;;;;;;;;;5066914;28;20055;-46
2022/10/14 13:27:29;;;;;;;0.47;0.40;;;;;;;;;;5067449;28;20033;-50
2022/10/14 13:30:01;;;;;;;0.40;0.40;;;;;;;;;;5067075;28;20099;-48
2022/10/14 13:32:36;;;;;;;1.02;0.65;;;;;;;;;;5066823;28;20474;-51
2022/10/14 13:35:08;;;;;;;1.02;0.60;;;;;;;;;;5067532;28;20275;-51
2022/10/14 13:37:35;;;;;;;0.40;0.40;;;;;;;;;;5067269;28;20028;-51
2022/10/14 13:40:21;;;;;;;0.40;0.40;;;;;;;;;;5067034;28;20043;-51
2022/10/14 13:42:52;;;;;;;0.65;0.65;;;;;;;;;;5079230;28;20103;-51
2022/10/14 13:45:20;;;;;;;0.60;0.40;;;;;;;;;;5086701;28;20024;-51
2022/10/14 13:47:48;;;;;;;0.50;0.50;;;;;;;;;;5086463;28;20550;-51
2022/10/14 13:50:16;;;;;;;0.50;0.50;;;;;;;;;;5086279;28;20406;-49
2022/10/14 13:52:46;;;;;;;0.65;0.40;;;;;;;;;;5086745;28;20027;-48
2022/10/14 13:55:15;;;;;;;0.50;0.50;;;;;;;;;;5086630;28;20220;-50
2022/10/14 13:57:42;;;;;;;0.40;0.40;;;;;;;;;;5081739;28;20456;-50
2022/10/14 14:00:29;;;;;;;0.63;0.50;;;;;;;;;;5086252;28;20036;-50
2022/10/14 14:02:55;;;;;;;0.45;0.45;;;;;;;;;;5086626;28;20028;-50
2022/10/14 14:05:22;;;;;;;0.40;0.40;;;;;;;;;;5086561;28;20035;-50
2022/10/14 14:07:49;;;;;;;0.43;0.43;;;;;;;;;;5086499;28;20035;-52
2022/10/14 14:10:18;;;;;;;0.90;0.70;;;;;;;;;;5086290;28;20032;-50
2022/10/14 14:12:45;;;;;;;0.40;0.40;;;;;;;;;;5086469;28;20511;-50
2022/10/14 14:15:17;;;;;;;0.47;0.40;;;;;;;;;;5086332;28;20032;-50
2022/10/14 14:17:44;;;;;;;0.47;0.40;;;;;;;;;;5085171;28;20107;-51
2022/10/14 14:20:11;;;;;;;0.40;0.40;;;;;;;;;;5086616;28;20042;-49
2022/10/14 14:22:42;;;;;;;1.02;0.60;;;;;;;;;;5083048;28;20099;-51
2022/10/14 14:25:14;;;;;;;0.82;0.43;;;;;;;;;;5065787;28;20036;-51
2022/10/14 14:27:45;;;;;;;0.40;0.40;;;;;;;;;;5065646;28;20032;-47
2022/10/14 14:30:21;;;;;;;0.30;0.30;;;;;;;;;;5065990;28;20024;-49
2022/10/14 14:32:47;;;;;;;0.50;0.47;;;;;;;;;;5066401;28;20490;-51
2022/10/14 14:35:13;;;;;;;0.40;0.40;;;;;;;;;;5065766;28;20024;-47
2022/10/14 14:37:45;;;;;;;0.30;0.30;;;;;;;;;;5065750;28;20033;-49
2022/10/14 14:40:16;;;;;;;0.40;0.40;;;;;;;;;;5063912;28;20471;-48
2022/10/14 14:42:45;;;;;;;0.40;0.40;;;;;;;;;;5065814;28;20025;-51
2022/10/14 14:45:19;;;;;;;0.50;0.50;;;;;;;;;;5065348;28;20103;-49
2022/10/14 14:47:47;;;;;;;;;;;;;;;;;;5066483;28;20111;-51
2022/10/14 14:50:14;;;;;;;0.28;0.28;;;;;;;;;;5065535;28;19904;-47
2022/10/14 14:52:40;;;;;;;0.52;0.40;;;;;;;;;;5065399;28;20056;-47
2022/10/14 14:55:26;;;;;;;0.55;0.47;;;;;;;;;;5065347;28;20450;-47
2022/10/14 14:57:57;;;;;;;0.40;0.40;;;;;;;;;;5065858;28;20458;-49
2022/10/14 15:00:23;;;;;;;0.45;0.45;;;;;;;;;;5064166;28;20110;-51
2022/10/14 15:02:50;;;;;;;0.40;0.40;;;;;;;;;;5083751;28;20052;-50
2022/10/14 15:05:19;;;;;;;0.50;0.50;;;;;;;;;;5079497;28;20036;-51